createdAt,value
2022-10-13T00:02:42.637Z,28.92
2022-10-13T00:05:10.639Z,33.33
2022-10-13T00:07:38.449Z,38.17
2022-10-13T00:10:07.720Z,30.35
2022-10-13T00:12:37.331Z,34.45
2022-10-13T00:15:08.629Z,35.25
2022-10-13T00:17:37.942Z,34.33
2022-10-13T00:20:08.033Z,37.63
2022-10-13T00:22:35.921Z,37.65
2022-10-13T00:25:05.080Z,41.40
2022-10-13T00:27:32.961Z,37.60
2022-10-13T00:30:00.862Z,40.45
2022-10-13T00:32:29.699Z,37.42
2022-10-13T00:34:57.779Z,39.50
2022-10-13T00:37:58.038Z,41.10
2022-10-13T04:27:35.916Z,39.40
2022-10-13T04:30:05.667Z,38.90
2022-10-13T04:32:33.782Z,37.25
2022-10-13T04:35:05.590Z,43.25
2022-10-13T04:37:58.499Z,33.33
2022-10-13T04:41:18.673Z,39.73
2022-10-13T05:01:21.563Z,35.38
2022-10-13T05:03:49.029Z,33.13
2022-10-13T05:06:20.784Z,36.28
2022-10-13T05:08:50.878Z,37.10
2022-10-13T05:11:21.934Z,29.92
2022-10-13T05:14:54.135Z,34.98
2022-10-13T05:17:35.745Z,27.07
2022-10-13T05:20:13.639Z,27.58
2022-10-13T05:22:54.106Z,28.42
2022-10-13T05:25:24.044Z,28.10
2022-10-13T05:27:52.215Z,26.45
2022-10-13T05:31:09.020Z,24.40
2022-10-13T05:34:07.089Z,30.08
2022-10-13T05:36:35.338Z,29.70
2022-10-13T05:39:09.637Z,33.38
2022-10-13T05:41:38.814Z,31.33
2022-10-13T05:44:09.390Z,32.67
2022-10-13T05:46:41.739Z,28.70
2022-10-13T05:49:16.369Z,26.20
2022-10-13T05:51:58.290Z,31.12
2022-10-13T05:54:55.545Z,35.60
2022-10-13T05:57:37.342Z,34.18
2022-10-13T06:03:57.458Z,39.70
2022-10-13T06:06:35.717Z,45.03
2022-10-13T06:09:08.050Z,54.50
2022-10-13T06:11:41.252Z,57.35
2022-10-13T06:14:12.938Z,40.90
2022-10-13T06:16:41.724Z,34.65
2022-10-13T06:19:12.192Z,33.23
2022-10-13T06:21:42.405Z,31.90
2022-10-13T06:24:14.792Z,36.40
2022-10-13T06:26:43.006Z,36.98
2022-10-13T06:29:12.188Z,31.50
2022-10-13T06:31:40.486Z,39.05
2022-10-13T06:34:09.638Z,44.80
2022-10-13T06:36:39.320Z,35.88
2022-10-13T06:39:07.129Z,33.55
2022-10-13T06:41:35.029Z,36.58
2022-10-13T06:44:03.085Z,42.25
2022-10-13T06:46:31.050Z,41.92
2022-10-13T06:48:58.894Z,36.00
2022-10-13T06:51:28.394Z,37.38
2022-10-13T06:53:57.145Z,37.73
2022-10-13T06:56:26.556Z,38.75
2022-10-13T06:58:54.354Z,40.67
2022-10-13T07:01:21.850Z,48.52
2022-10-13T07:03:50.854Z,49.40
2022-10-13T07:06:20.640Z,42.98
2022-10-13T07:08:49.198Z,37.85
2022-10-13T07:11:17.988Z,36.85
2022-10-13T07:13:47.607Z,53.17
2022-10-13T07:16:16.005Z,43.73
2022-10-13T07:18:43.965Z,41.23
2022-10-13T07:21:13.010Z,39.60
2022-10-13T07:23:41.091Z,38.80
2022-10-13T07:26:28.039Z,33.63
2022-10-13T07:29:04.291Z,30.95
2022-10-13T07:31:31.977Z,29.32
2022-10-13T07:34:00.507Z,31.40
2022-10-13T07:36:30.646Z,36.53
2022-10-13T07:38:58.682Z,34.20
2022-10-13T07:41:26.619Z,28.70
2022-10-13T07:43:57.157Z,27.65
2022-10-13T07:46:25.324Z,26.68
2022-10-13T07:48:53.619Z,27.65
2022-10-13T07:51:22.847Z,24.35
2022-10-13T07:53:50.834Z,25.00
2022-10-13T07:56:18.963Z,23.22
2022-10-13T07:58:48.432Z,27.15
2022-10-13T08:01:17.271Z,30.17
2022-10-13T08:03:49.827Z,21.93
2022-10-13T08:06:17.781Z,26.00
2022-10-13T08:08:46.344Z,25.02
2022-10-13T08:11:17.908Z,26.40
2022-10-13T08:13:50.488Z,27.60
2022-10-13T08:16:24.284Z,30.20
2022-10-13T08:18:52.574Z,26.33
2022-10-13T08:21:45.798Z,32.90
2022-10-13T08:23:54.058Z,31.35
2022-10-13T08:26:26.063Z,28.90
2022-10-13T08:31:24.112Z,18.65
2022-10-13T08:33:53.321Z,23.25
2022-10-13T08:36:21.245Z,18.05
2022-10-13T08:38:49.176Z,23.70
2022-10-13T08:41:21.143Z,25.10
2022-10-13T08:44:47.633Z,19.75
2022-10-13T08:46:49.056Z,25.23
2022-10-13T08:49:17.878Z,20.12
2022-10-13T08:51:45.778Z,23.35
2022-10-13T08:54:17.482Z,23.80
2022-10-13T08:56:47.327Z,21.20
2022-10-13T08:59:17.257Z,21.82
2022-10-13T09:01:50.930Z,21.68
2022-10-13T09:04:35.917Z,16.90
2022-10-13T09:07:24.368Z,78.12
2022-10-13T09:09:54.476Z,26.27
2022-10-13T09:12:26.176Z,28.23
2022-10-13T09:15:02.422Z,29.25
2022-10-13T09:17:33.733Z,15.95
2022-10-13T09:20:09.953Z,15.65
2022-10-13T09:22:39.884Z,19.00
2022-10-13T09:25:19.383Z,15.48
2022-10-13T09:27:59.113Z,13.38
2022-10-13T09:30:43.848Z,58.08
2022-10-13T09:33:19.796Z,25.65
2022-10-13T09:36:05.798Z,10.78
2022-10-13T09:38:37.641Z,44.35
2022-10-13T09:41:24.814Z,12.88
2022-10-13T09:44:01.819Z,12.05
2022-10-13T09:46:38.169Z,11.33
2022-10-13T09:49:41.472Z,11.73
2022-10-13T10:12:55.146Z,16.25
2022-10-13T10:19:55.600Z,13.35
2022-10-13T10:23:42.049Z,15.53
2022-10-13T10:26:46.302Z,13.43
2022-10-13T10:38:34.588Z,12.53
2022-10-13T10:41:25.366Z,14.95
2022-10-13T10:44:15.776Z,12.63
2022-10-13T10:46:51.081Z,11.45
2022-10-13T10:49:27.965Z,15.50
2022-10-13T10:51:56.955Z,11.28
2022-10-13T10:54:59.752Z,14.55
2022-10-13T10:57:52.939Z,13.30
2022-10-13T11:00:23.253Z,15.70
2022-10-13T11:03:06.006Z,13.70
2022-10-13T11:06:14.570Z,12.68
2022-10-13T11:08:47.726Z,14.10
2022-10-13T11:11:33.386Z,16.85
2022-10-13T11:14:40.831Z,11.33
2022-10-13T11:24:53.282Z,14.93
2022-10-13T11:28:06.849Z,15.13
2022-10-13T11:44:54.752Z,10.58
2022-10-13T11:47:53.547Z,13.30
2022-10-13T11:50:49.088Z,17.07
2022-10-13T11:53:39.261Z,14.90
2022-10-13T11:56:31.873Z,11.75
2022-10-13T11:59:00.356Z,14.03
2022-10-13T12:01:43.533Z,16.82
2022-10-13T12:04:21.914Z,14.28
2022-10-13T12:07:04.309Z,16.27
2022-10-13T12:09:43.822Z,14.98
2022-10-13T12:12:23.850Z,14.95
2022-10-13T12:15:04.269Z,13.22
2022-10-13T12:17:42.502Z,14.98
2022-10-13T12:20:27.131Z,17.02
2022-10-13T12:22:56.706Z,15.50
2022-10-13T12:25:33.154Z,14.80
2022-10-13T12:28:05.300Z,11.15
2022-10-13T12:30:41.250Z,10.72
2022-10-13T12:33:34.834Z,13.28
2022-10-13T12:36:34.047Z,9.58
2022-10-13T12:39:13.025Z,11.80
2022-10-13T12:41:47.443Z,11.57
2022-10-13T12:44:22.701Z,10.50
2022-10-13T12:47:00.198Z,11.48
2022-10-13T12:49:32.789Z,10.68
2022-10-13T12:52:22.487Z,13.98
2022-10-13T12:54:55.372Z,15.18
2022-10-13T12:57:38.518Z,16.05
2022-10-13T13:00:26.589Z,17.10
2022-10-13T13:03:01.304Z,12.68
2022-10-13T13:05:34.908Z,12.13
2022-10-13T13:08:28.911Z,12.18
2022-10-13T13:11:09.182Z,17.30
2022-10-13T13:13:37.350Z,23.65
2022-10-13T13:16:18.785Z,12.65
2022-10-13T13:18:50.589Z,13.10
2022-10-13T13:21:20.406Z,14.93
2022-10-13T13:23:52.877Z,14.33
2022-10-13T13:26:22.604Z,14.38
2022-10-13T13:28:56.129Z,23.35
2022-10-13T13:31:26.089Z,16.40
2022-10-13T13:34:17.907Z,28.45
2022-10-13T13:36:56.472Z,18.17
2022-10-13T13:39:31.616Z,17.02
2022-10-13T13:42:03.609Z,18.85
2022-10-13T13:44:33.464Z,15.00
2022-10-13T13:47:04.977Z,16.95
2022-10-13T13:49:33.370Z,16.55
2022-10-13T13:52:03.187Z,14.15
2022-10-13T13:54:31.225Z,15.05
2022-10-13T13:57:00.435Z,14.00
2022-10-13T13:59:28.241Z,13.13
2022-10-13T14:01:56.121Z,12.73
2022-10-13T14:04:25.973Z,11.35
2022-10-13T14:06:56.144Z,13.78
2022-10-13T14:09:31.617Z,12.78
2022-10-13T14:11:59.682Z,13.28
2022-10-13T14:14:31.393Z,13.75
2022-10-13T14:17:05.121Z,14.63
2022-10-13T14:19:33.585Z,13.30
2022-10-13T14:22:08.580Z,14.68
2022-10-13T14:24:34.375Z,13.48
2022-10-13T14:27:10.168Z,16.17
2022-10-13T14:29:39.477Z,17.42
2022-10-13T14:32:14.272Z,15.18
2022-10-13T14:34:42.504Z,16.23
2022-10-13T14:37:12.419Z,17.07
2022-10-13T14:39:40.442Z,15.55
2022-10-13T14:42:08.416Z,18.92
2022-10-13T14:44:36.401Z,22.67
2022-10-13T14:47:07.977Z,21.60
2022-10-13T14:49:44.297Z,22.07
2022-10-13T14:52:17.177Z,19.62
2022-10-13T14:54:50.741Z,22.82
2022-10-13T14:57:19.642Z,23.07
2022-10-13T14:59:47.937Z,22.37
2022-10-13T15:02:16.086Z,27.27
2022-10-13T15:04:50.046Z,22.48
2022-10-13T15:07:22.973Z,22.77
2022-10-13T15:10:04.374Z,22.27
2022-10-13T15:12:21.083Z,18.67
2022-10-13T15:14:49.478Z,28.20
2022-10-13T15:17:52.278Z,22.22
2022-10-13T15:21:16.398Z,18.70
2022-10-13T15:23:44.515Z,26.17
2022-10-13T15:29:02.857Z,27.67
2022-10-13T15:31:38.801Z,29.35
2022-10-13T15:34:12.199Z,31.45
2022-10-13T15:36:44.497Z,40.45
2022-10-13T15:39:12.222Z,36.55
2022-10-13T15:41:44.834Z,36.83
2022-10-13T15:47:10.019Z,32.35
2022-10-13T15:49:48.143Z,35.85
2022-10-13T15:52:16.657Z,28.38
2022-10-13T15:54:44.913Z,26.68
2022-10-13T15:57:14.245Z,30.17
2022-10-13T16:03:29.485Z,32.00
2022-10-13T16:09:42.930Z,34.90
2022-10-13T16:57:32.451Z,107.58
2022-10-13T17:00:02.597Z,104.83
2022-10-13T17:09:34.165Z,120.92
2022-10-13T17:12:04.500Z,129.60
2022-10-13T17:15:06.192Z,138.37
2022-10-13T17:17:36.155Z,148.70
2022-10-13T17:20:04.932Z,141.10
2022-10-13T17:22:35.598Z,128.55
2022-10-13T17:25:04.026Z,99.75
2022-10-13T17:27:37.811Z,86.72
2022-10-13T17:30:06.833Z,70.22
2022-10-13T17:32:42.647Z,72.37
2022-10-13T18:15:59.963Z,72.60
2022-10-13T18:18:28.529Z,65.70
2022-10-13T18:21:09.707Z,71.45
2022-10-13T18:24:08.725Z,82.05
2022-10-13T18:27:03.429Z,90.47
2022-10-13T18:29:51.289Z,70.32
2022-10-13T18:32:18.007Z,57.43
2022-10-13T18:49:54.220Z,62.03
2022-10-13T18:52:25.640Z,67.78
2022-10-13T18:55:05.643Z,60.70
2022-10-13T18:57:42.548Z,71.50
2022-10-13T19:00:16.132Z,66.40
2022-10-13T19:02:56.170Z,62.58
2022-10-13T19:05:25.895Z,58.95
2022-10-13T19:07:55.923Z,64.17
2022-10-13T19:10:26.443Z,64.03
2022-10-13T19:12:54.455Z,70.95
2022-10-13T19:15:28.261Z,69.92
2022-10-13T19:17:57.804Z,70.12
2022-10-13T19:20:26.004Z,71.50
2022-10-13T19:22:55.218Z,68.35
2022-10-13T19:25:24.984Z,64.03
2022-10-13T19:27:53.607Z,71.00
2022-10-13T19:30:21.646Z,123.75
2022-10-13T19:32:50.948Z,103.65
2022-10-13T19:35:19.495Z,97.30
2022-10-13T19:37:47.482Z,100.97
2022-10-13T19:40:15.612Z,92.75
2022-10-13T19:42:43.702Z,91.42
2022-10-13T19:45:11.635Z,81.45
2022-10-13T19:47:39.937Z,72.17
2022-10-13T19:50:08.332Z,64.30
2022-10-13T19:52:36.427Z,73.72
2022-10-13T19:55:08.872Z,66.97
2022-10-13T19:57:45.446Z,59.50
2022-10-13T20:00:18.587Z,58.10
2022-10-13T20:02:50.010Z,51.75
2022-10-13T20:05:25.268Z,52.65
2022-10-13T20:07:49.753Z,46.58
2022-10-13T20:10:23.232Z,46.85
2022-10-13T20:12:57.730Z,46.15
2022-10-13T20:15:28.200Z,40.30
2022-10-13T20:18:00.942Z,46.88
2022-10-13T20:20:34.491Z,51.85
2022-10-13T20:23:05.534Z,52.23
2022-10-13T20:25:54.416Z,47.55
2022-10-13T20:28:44.569Z,66.17
2022-10-13T20:31:20.116Z,110.63
2022-10-13T20:34:00.948Z,94.25
2022-10-13T20:36:38.316Z,81.08
2022-10-13T20:39:08.634Z,61.02
2022-10-13T20:41:38.712Z,43.98
2022-10-13T20:44:07.245Z,35.78
2022-10-13T20:46:40.139Z,33.67
2022-10-13T20:49:13.468Z,32.10
2022-10-13T20:51:45.411Z,31.73
2022-10-13T20:54:16.825Z,34.58
2022-10-13T21:01:30.272Z,36.45
2022-10-13T21:03:55.406Z,29.87
2022-10-13T21:06:25.835Z,33.55
2022-10-13T21:08:55.196Z,32.98
2022-10-13T21:11:24.353Z,36.00
2022-10-13T21:13:53.836Z,40.35
2022-10-13T21:16:26.683Z,32.38
2022-10-13T21:18:57.315Z,37.48
2022-10-13T21:21:32.682Z,41.75
2022-10-13T21:24:04.872Z,37.73
2022-10-13T21:26:34.145Z,39.18
2022-10-13T21:29:03.697Z,39.92
2022-10-13T21:31:32.181Z,42.70
2022-10-13T21:34:00.690Z,47.27
2022-10-13T21:36:31.519Z,42.83
2022-10-13T21:39:04.474Z,45.15
2022-10-13T21:41:34.245Z,47.03
2022-10-13T21:44:02.643Z,41.77
2022-10-13T21:46:33.746Z,41.90
2022-10-13T21:49:05.692Z,43.63
2022-10-13T21:51:37.392Z,45.15
2022-10-13T22:20:26.809Z,36.58
2022-10-13T22:22:54.617Z,36.10
2022-10-13T22:25:22.403Z,40.20
2022-10-13T22:27:50.093Z,44.70
2022-10-13T22:30:18.049Z,36.23
2022-10-13T22:32:45.916Z,34.38
2022-10-13T22:35:13.928Z,42.88
2022-10-13T22:37:41.935Z,48.25
2022-10-13T22:40:10.780Z,37.28
2022-10-13T22:42:38.551Z,36.50
2022-10-13T22:45:07.459Z,36.53
2022-10-13T22:47:35.287Z,38.53
2022-10-13T22:50:03.250Z,34.20
2022-10-13T22:52:31.078Z,31.85
2022-10-13T22:54:59.044Z,35.30
2022-10-13T22:57:26.852Z,37.40
2022-10-13T22:59:55.207Z,36.70
2022-10-13T23:02:22.890Z,38.83
2022-10-13T23:04:50.658Z,36.80
2022-10-13T23:07:18.727Z,35.92
2022-10-13T23:09:46.847Z,34.03
2022-10-13T23:12:14.954Z,36.45
2022-10-13T23:14:43.365Z,32.15
2022-10-13T23:17:14.485Z,32.00
2022-10-13T23:19:44.503Z,35.17
2022-10-13T23:22:12.614Z,31.30
2022-10-13T23:24:40.437Z,30.62
2022-10-13T23:27:09.123Z,28.67
2022-10-13T23:29:36.912Z,31.75
2022-10-13T23:32:09.750Z,28.17
2022-10-13T23:34:35.495Z,26.85
2022-10-13T23:37:05.294Z,29.35
2022-10-13T23:39:33.526Z,19.15
2022-10-13T23:42:01.570Z,22.65
2022-10-13T23:44:29.752Z,22.60
2022-10-13T23:46:58.758Z,16.75
2022-10-13T23:49:26.941Z,14.98
2022-10-13T23:51:54.898Z,15.60
